createdAt,value
2022-09-17T00:01:22.756Z,23.35
2022-09-17T00:04:04.809Z,19.98
2022-09-17T00:06:34.559Z,23.27
2022-09-17T00:09:02.455Z,20.73
2022-09-17T00:11:32.689Z,20.45
2022-09-17T00:14:02.541Z,21.15
2022-09-17T00:16:31.810Z,23.60
2022-09-17T00:19:00.184Z,23.48
2022-09-17T00:21:27.812Z,20.95
2022-09-17T00:24:00.546Z,23.73
2022-09-17T00:26:28.688Z,23.90
2022-09-17T00:28:57.421Z,23.80
2022-09-17T00:31:25.513Z,24.77
2022-09-17T00:33:52.975Z,21.45
2022-09-17T00:36:21.126Z,24.90
2022-09-17T00:38:52.042Z,24.38
2022-09-17T00:41:20.476Z,26.77
2022-09-17T00:43:51.001Z,23.58
2022-09-17T00:46:40.529Z,21.92
2022-09-17T00:49:16.995Z,22.55
2022-09-17T00:51:57.057Z,25.48
2022-09-17T00:54:27.147Z,22.30
2022-09-17T00:56:54.252Z,22.95
2022-09-17T00:59:23.199Z,22.40
2022-09-17T01:01:51.097Z,23.60
2022-09-17T01:04:25.152Z,21.88
2022-09-17T01:07:11.808Z,23.88
2022-09-17T01:10:08.053Z,20.58
2022-09-17T01:12:38.031Z,27.73
2022-09-17T01:15:09.806Z,22.23
2022-09-17T01:17:48.046Z,21.60
2022-09-17T01:20:33.587Z,27.13
2022-09-17T01:23:34.120Z,21.42
2022-09-17T01:26:29.589Z,25.02
2022-09-17T01:29:27.174Z,23.73
2022-09-17T01:32:06.343Z,29.77
2022-09-17T01:34:51.563Z,21.50
2022-09-17T01:37:45.548Z,28.80
2022-09-17T01:40:38.839Z,23.40
2022-09-17T01:43:21.700Z,23.40
2022-09-17T01:45:57.410Z,26.48
2022-09-17T01:48:29.864Z,22.70
2022-09-17T01:50:59.629Z,24.52
2022-09-17T01:53:39.218Z,23.17
2022-09-17T01:56:09.580Z,21.17
2022-09-17T01:58:47.775Z,30.00
2022-09-17T02:01:20.033Z,20.70
2022-09-17T02:03:58.971Z,24.20
2022-09-17T02:06:31.767Z,20.92
2022-09-17T02:09:15.538Z,25.83
2022-09-17T02:11:50.245Z,21.77
2022-09-17T02:14:25.335Z,22.23
2022-09-17T02:16:58.046Z,21.52
2022-09-17T02:19:35.658Z,27.02
2022-09-17T02:22:28.253Z,24.08
2022-09-17T02:25:10.705Z,26.17
2022-09-17T02:27:46.867Z,25.03
2022-09-17T02:30:14.507Z,27.08
2022-09-17T02:32:42.629Z,22.02
2022-09-17T02:35:14.079Z,24.92
2022-09-17T02:37:44.975Z,27.52
2022-09-17T02:40:15.881Z,23.35
2022-09-17T02:42:55.424Z,27.85
2022-09-17T02:45:52.571Z,30.55
2022-09-17T02:48:57.369Z,24.90
2022-09-17T02:52:00.908Z,24.33
2022-09-17T02:54:43.076Z,27.98
2022-09-17T02:57:48.632Z,23.50
2022-09-17T03:00:19.364Z,28.48
2022-09-17T03:03:22.736Z,23.48
2022-09-17T03:05:51.143Z,27.10
2022-09-17T03:08:22.084Z,26.20
2022-09-17T03:10:55.993Z,26.42
2022-09-17T03:13:35.236Z,26.15
2022-09-17T03:16:09.681Z,24.30
2022-09-17T03:18:54.139Z,21.10
2022-09-17T03:21:21.658Z,27.23
2022-09-17T03:23:59.827Z,21.52
2022-09-17T03:26:27.813Z,23.73
2022-09-17T03:28:56.129Z,20.95
2022-09-17T03:31:23.171Z,24.27
2022-09-17T03:33:50.373Z,19.75
2022-09-17T03:36:17.524Z,27.30
2022-09-17T03:38:44.672Z,22.95
2022-09-17T03:41:11.877Z,22.30
2022-09-17T03:43:40.067Z,18.52
2022-09-17T03:46:07.243Z,13.60
2022-09-17T03:48:37.284Z,19.70
2022-09-17T03:51:05.036Z,20.13
2022-09-17T03:53:32.823Z,27.63
2022-09-17T03:56:01.725Z,7.72
2022-09-17T03:58:30.429Z,6.47
2022-09-17T04:00:58.220Z,4.95
2022-09-17T04:03:26.621Z,4.13
2022-09-17T04:05:54.508Z,5.95
2022-09-17T04:08:22.296Z,3.90
2022-09-17T04:10:49.410Z,6.47
2022-09-17T04:13:17.120Z,6.78
2022-09-17T04:15:46.518Z,6.35
2022-09-17T04:18:14.075Z,6.43
2022-09-17T04:20:41.678Z,6.82
2022-09-17T04:23:11.178Z,6.32
2022-09-17T04:25:39.173Z,8.32
2022-09-17T04:28:06.478Z,6.43
2022-09-17T04:30:33.611Z,5.47
2022-09-17T04:33:00.707Z,7.78
2022-09-17T04:35:27.761Z,8.85
2022-09-17T04:37:56.049Z,6.00
2022-09-17T04:40:24.304Z,7.68
2022-09-17T04:43:03.389Z,5.55
2022-09-17T04:45:33.733Z,6.05
2022-09-17T04:48:01.983Z,6.82
2022-09-17T04:50:29.104Z,7.15
2022-09-17T04:52:56.238Z,7.20
2022-09-17T04:55:23.323Z,6.32
2022-09-17T04:57:52.571Z,5.95
2022-09-17T05:00:21.802Z,6.38
2022-09-17T05:02:51.124Z,7.30
2022-09-17T05:05:19.397Z,4.30
2022-09-17T05:07:47.134Z,5.57
2022-09-17T05:10:16.424Z,5.63
2022-09-17T05:12:49.290Z,3.38
2022-09-17T05:15:16.478Z,4.45
2022-09-17T05:17:43.692Z,5.05
2022-09-17T05:20:12.211Z,4.45
2022-09-17T05:22:47.044Z,4.65
2022-09-17T05:25:16.299Z,4.15
2022-09-17T05:27:43.500Z,5.00
2022-09-17T05:30:13.052Z,4.65
2022-09-17T05:32:40.894Z,6.50
2022-09-17T05:35:08.912Z,4.38
2022-09-17T05:37:37.545Z,3.60
2022-09-17T05:40:07.286Z,5.25
2022-09-17T05:42:34.739Z,6.72
2022-09-17T05:45:02.019Z,3.97
2022-09-17T05:47:30.269Z,5.45
2022-09-17T05:49:57.214Z,3.55
2022-09-17T05:52:28.230Z,3.28
2022-09-17T05:54:56.226Z,5.57
2022-09-17T05:57:23.564Z,5.82
2022-09-17T05:59:50.738Z,5.95
2022-09-17T06:02:17.841Z,6.25
2022-09-17T06:04:45.429Z,5.38
2022-09-17T06:07:13.145Z,8.85
2022-09-17T06:09:42.834Z,6.75
2022-09-17T06:12:09.822Z,5.85
2022-09-17T06:14:36.945Z,5.95
2022-09-17T06:17:04.183Z,8.23
2022-09-17T06:19:31.185Z,7.57
2022-09-17T06:21:58.288Z,6.75
2022-09-17T06:24:26.094Z,5.82
2022-09-17T06:26:53.085Z,4.55
2022-09-17T06:29:21.266Z,5.53
2022-09-17T06:31:52.208Z,8.10
2022-09-17T06:34:19.678Z,6.82
2022-09-17T06:36:48.873Z,5.80
2022-09-17T06:39:15.997Z,6.72
2022-09-17T06:41:43.478Z,10.88
2022-09-17T06:44:11.381Z,6.25
2022-09-17T06:46:38.529Z,5.25
2022-09-17T06:49:08.600Z,10.18
2022-09-17T06:51:36.170Z,7.13
2022-09-17T06:54:03.530Z,8.35
2022-09-17T06:56:30.496Z,5.32
2022-09-17T06:58:57.612Z,5.97
2022-09-17T07:01:24.759Z,10.02
2022-09-17T07:03:52.616Z,8.85
2022-09-17T07:06:19.709Z,9.07
2022-09-17T07:08:47.335Z,6.13
2022-09-17T07:11:16.120Z,9.25
2022-09-17T07:13:43.299Z,7.18
2022-09-17T07:16:10.959Z,10.75
2022-09-17T07:18:38.997Z,6.15
2022-09-17T07:21:06.919Z,7.70
2022-09-17T07:23:36.156Z,6.65
2022-09-17T07:26:09.144Z,6.45
2022-09-17T07:28:39.427Z,6.30
2022-09-17T07:31:09.361Z,8.52
2022-09-17T07:33:40.197Z,6.15
2022-09-17T07:36:11.683Z,5.65
2022-09-17T07:38:39.795Z,9.05
2022-09-17T07:41:15.707Z,9.77
2022-09-17T07:43:44.014Z,8.68
2022-09-17T07:46:20.116Z,8.57
2022-09-17T07:48:48.630Z,9.30
2022-09-17T07:51:22.023Z,10.30
2022-09-17T07:54:01.078Z,4.90
2022-09-17T07:56:31.098Z,8.25
2022-09-17T07:59:02.278Z,6.10
2022-09-17T08:01:32.162Z,5.13
2022-09-17T08:03:59.298Z,10.50
2022-09-17T08:06:30.811Z,9.35
2022-09-17T08:09:02.673Z,8.05
2022-09-17T08:11:55.137Z,7.57
2022-09-17T08:14:18.176Z,12.60
2022-09-17T08:16:47.616Z,9.55
2022-09-17T08:19:14.738Z,8.40
2022-09-17T08:21:41.779Z,10.05
2022-09-17T08:24:09.026Z,10.10
2022-09-17T08:26:36.201Z,8.25
2022-09-17T08:29:03.490Z,11.32
2022-09-17T08:31:30.836Z,7.85
2022-09-17T08:34:20.545Z,11.27
2022-09-17T08:37:01.945Z,11.18
2022-09-17T08:39:29.842Z,15.25
2022-09-17T08:42:24.862Z,6.68
2022-09-17T08:44:55.199Z,5.25
2022-09-17T08:47:38.005Z,5.57
2022-09-17T08:50:32.736Z,6.15
2022-09-17T08:53:18.479Z,7.18
2022-09-17T08:56:14.661Z,3.40
2022-09-17T08:58:53.500Z,4.40
2022-09-17T09:01:28.197Z,5.68
2022-09-17T09:04:14.546Z,6.18
2022-09-17T09:06:49.977Z,7.63
2022-09-17T09:09:23.841Z,8.50
2022-09-17T09:12:00.705Z,2.85
2022-09-17T09:14:36.151Z,6.00
2022-09-17T09:17:08.791Z,5.88
2022-09-17T09:19:44.546Z,6.70
2022-09-17T09:22:30.598Z,4.65
2022-09-17T09:28:50.022Z,5.78
2022-09-17T09:31:51.820Z,9.30
2022-09-17T09:34:19.589Z,8.40
2022-09-17T09:36:47.710Z,9.30
2022-09-17T09:39:24.254Z,8.02
2022-09-17T09:42:04.978Z,4.35
2022-09-17T09:44:32.298Z,7.20
2022-09-17T09:47:17.623Z,7.28
2022-09-17T09:49:57.289Z,5.00
2022-09-17T09:52:27.268Z,6.15
2022-09-17T09:55:15.890Z,5.40
2022-09-17T09:57:52.473Z,4.53
2022-09-17T10:00:40.362Z,4.63
2022-09-17T10:03:40.681Z,8.00
2022-09-17T10:06:11.565Z,2.65
2022-09-17T10:09:02.985Z,4.78
2022-09-17T10:11:35.468Z,9.93
2022-09-17T10:14:40.687Z,6.13
2022-09-17T10:17:21.849Z,6.30
2022-09-17T10:20:10.586Z,3.88
2022-09-17T10:22:45.822Z,8.93
2022-09-17T10:25:34.942Z,6.72
2022-09-17T10:28:13.933Z,10.68
2022-09-17T10:31:08.948Z,5.10
2022-09-17T10:33:40.199Z,5.97
2022-09-17T10:36:14.891Z,6.65
2022-09-17T10:38:46.616Z,7.80
2022-09-17T10:41:22.072Z,5.75
2022-09-17T10:43:50.078Z,5.00
2022-09-17T10:46:25.191Z,9.23
2022-09-17T10:49:28.782Z,4.22
2022-09-17T10:52:08.749Z,8.40
2022-09-17T10:54:42.471Z,2.55
2022-09-17T10:57:19.092Z,4.53
2022-09-17T11:00:03.115Z,11.43
2022-09-17T11:03:19.590Z,3.65
2022-09-17T11:06:14.442Z,7.22
2022-09-17T11:08:57.558Z,8.85
2022-09-17T11:11:47.050Z,3.15
2022-09-17T11:14:26.497Z,6.55
2022-09-17T11:17:31.196Z,4.00
2022-09-17T11:20:06.721Z,3.08
2022-09-17T11:23:04.751Z,5.88
2022-09-17T11:25:47.088Z,5.85
2022-09-17T11:28:29.387Z,9.02
2022-09-17T11:31:32.178Z,4.20
2022-09-17T11:34:17.936Z,5.22
2022-09-17T11:37:25.325Z,3.65
2022-09-17T11:40:11.863Z,4.78
2022-09-17T11:42:56.090Z,7.85
2022-09-17T11:45:27.092Z,7.43
2022-09-17T11:48:00.172Z,6.28
2022-09-17T11:50:27.370Z,4.18
2022-09-17T11:53:01.288Z,6.07
2022-09-17T11:55:40.159Z,6.68
2022-09-17T11:58:35.416Z,4.40
2022-09-17T12:01:13.017Z,8.90
2022-09-17T12:03:48.419Z,4.65
2022-09-17T12:06:21.785Z,4.07
2022-09-17T12:09:05.073Z,5.05
2022-09-17T12:11:42.313Z,3.70
2022-09-17T12:14:26.187Z,7.10
2022-09-17T12:17:00.649Z,10.98
2022-09-17T12:19:48.764Z,11.15
2022-09-17T12:22:23.776Z,6.75
2022-09-17T12:24:54.816Z,6.65
2022-09-17T12:27:37.051Z,6.70
2022-09-17T12:30:13.579Z,3.58
2022-09-17T12:32:57.079Z,6.05
2022-09-17T12:36:04.326Z,5.10
2022-09-17T12:39:02.670Z,6.43
2022-09-17T12:41:52.096Z,5.35
2022-09-17T12:44:59.961Z,10.10
2022-09-17T12:47:27.675Z,7.38
2022-09-17T12:50:17.658Z,5.07
2022-09-17T12:53:10.930Z,12.13
2022-09-17T12:58:23.711Z,5.07
2022-09-17T13:04:00.007Z,12.77
2022-09-17T13:06:52.172Z,5.43
2022-09-17T13:09:45.606Z,7.38
2022-09-17T13:12:22.394Z,5.93
2022-09-17T13:15:04.049Z,4.03
2022-09-17T13:17:39.398Z,4.93
2022-09-17T13:20:16.718Z,4.22
2022-09-17T13:22:46.856Z,4.75
2022-09-17T13:25:17.910Z,7.28
2022-09-17T13:27:47.065Z,7.40
2022-09-17T13:30:17.096Z,5.60
2022-09-17T13:32:49.898Z,9.65
2022-09-17T13:35:16.938Z,5.22
2022-09-17T13:37:53.038Z,6.20
2022-09-17T13:40:37.421Z,6.07
2022-09-17T13:43:04.400Z,6.85
2022-09-17T13:45:55.245Z,6.75
2022-09-17T13:48:28.481Z,6.00
2022-09-17T13:51:32.015Z,5.85
2022-09-17T13:56:43.096Z,3.47
2022-09-17T13:59:20.924Z,5.40
2022-09-17T14:02:01.474Z,6.50
2022-09-17T14:04:40.883Z,5.07
2022-09-17T14:07:31.996Z,7.43
2022-09-17T14:10:29.579Z,6.38
2022-09-17T14:13:27.019Z,4.70
2022-09-17T14:16:01.905Z,5.88
2022-09-17T14:18:29.118Z,11.80
2022-09-17T14:21:07.895Z,4.65
2022-09-17T14:23:46.375Z,6.90
2022-09-17T14:26:39.717Z,4.95
2022-09-17T14:29:13.270Z,5.75
2022-09-17T14:31:41.441Z,9.20
2022-09-17T14:34:19.327Z,8.77
2022-09-17T14:36:46.576Z,12.50
2022-09-17T14:39:23.595Z,7.70
2022-09-17T14:41:53.281Z,13.02
2022-09-17T14:44:24.565Z,6.40
2022-09-17T14:47:08.467Z,8.77
2022-09-17T14:49:38.558Z,4.60
2022-09-17T14:52:27.809Z,6.70
2022-09-17T14:55:21.489Z,8.13
2022-09-17T14:57:54.938Z,6.90
2022-09-17T15:00:24.273Z,8.70
2022-09-17T15:02:56.402Z,6.82
2022-09-17T15:05:29.922Z,11.48
2022-09-17T15:08:16.347Z,8.85
2022-09-17T15:10:57.561Z,7.97
2022-09-17T15:13:29.069Z,6.82
2022-09-17T15:16:00.985Z,6.47
2022-09-17T15:18:40.065Z,16.13
2022-09-17T15:21:40.749Z,18.98
2022-09-17T15:24:35.559Z,15.82
2022-09-17T15:27:12.157Z,13.65
2022-09-17T15:29:44.304Z,8.30
2022-09-17T15:32:15.683Z,7.03
2022-09-17T15:34:43.353Z,9.02
2022-09-17T15:37:25.641Z,5.97
2022-09-17T15:39:55.742Z,10.70
2022-09-17T15:42:27.642Z,9.07
2022-09-17T15:45:27.901Z,6.55
2022-09-17T15:47:57.403Z,7.63
2022-09-17T15:50:27.290Z,9.57
2022-09-17T15:53:09.895Z,8.85
2022-09-17T15:56:00.228Z,9.48
2022-09-17T15:58:30.691Z,12.70
2022-09-17T16:01:12.798Z,8.05
2022-09-17T16:03:39.837Z,12.60
2022-09-17T16:06:19.738Z,8.50
2022-09-17T16:08:57.920Z,9.13
2022-09-17T16:11:27.518Z,7.20
2022-09-17T16:13:56.225Z,10.85
2022-09-17T16:16:48.242Z,9.98
2022-09-17T16:19:15.669Z,9.73
2022-09-17T16:21:42.639Z,7.45
2022-09-17T16:24:09.715Z,6.80
2022-09-17T16:26:38.226Z,9.82
2022-09-17T16:29:11.453Z,14.75
2022-09-17T16:31:38.537Z,14.60
2022-09-17T16:34:05.501Z,17.48
2022-09-17T16:36:32.684Z,11.23
2022-09-17T16:38:59.961Z,20.33
2022-09-17T16:41:27.298Z,16.27
2022-09-17T16:43:54.418Z,13.55
2022-09-17T16:46:22.092Z,11.88
2022-09-17T16:48:52.456Z,11.88
2022-09-17T16:51:19.581Z,15.90
2022-09-17T16:53:46.795Z,11.90
2022-09-17T16:56:15.570Z,16.33
2022-09-17T16:58:43.012Z,10.27
2022-09-17T17:01:14.822Z,15.57
2022-09-17T17:03:42.911Z,13.45
2022-09-17T17:06:21.420Z,12.02
2022-09-17T17:08:49.365Z,12.65
2022-09-17T17:11:16.578Z,8.95
2022-09-17T17:13:44.265Z,10.93
2022-09-17T17:16:13.686Z,17.00
2022-09-17T17:18:45.046Z,13.68
2022-09-17T17:21:14.350Z,9.10
2022-09-17T17:23:43.685Z,11.43
2022-09-17T17:26:10.923Z,12.57
2022-09-17T17:28:38.011Z,13.18
2022-09-17T17:31:05.885Z,9.63
2022-09-17T17:33:33.596Z,11.02
2022-09-17T17:36:07.483Z,10.02
2022-09-17T17:38:36.473Z,11.35
2022-09-17T17:41:08.593Z,10.07
2022-09-17T17:43:36.171Z,7.23
2022-09-17T17:46:06.963Z,10.90
2022-09-17T17:48:34.286Z,9.95
2022-09-17T17:51:11.170Z,11.95
2022-09-17T17:53:44.743Z,7.70
2022-09-17T17:56:13.227Z,13.20
2022-09-17T17:58:41.018Z,7.22
2022-09-17T18:01:16.861Z,11.38
2022-09-17T18:03:44.521Z,10.43
2022-09-17T18:06:25.705Z,10.77
2022-09-17T18:08:53.775Z,10.75
2022-09-17T18:11:21.809Z,11.40
2022-09-17T18:13:54.178Z,10.35
2022-09-17T18:16:22.710Z,10.57
2022-09-17T18:18:50.610Z,8.80
2022-09-17T18:21:20.431Z,12.23
2022-09-17T18:23:48.346Z,14.15
2022-09-17T18:26:21.353Z,8.65
2022-09-17T18:28:49.210Z,9.93
2022-09-17T18:31:19.288Z,11.77
2022-09-17T18:33:46.965Z,8.80
2022-09-17T18:36:14.097Z,9.57
2022-09-17T18:38:41.413Z,11.20
2022-09-17T18:41:13.483Z,14.35
2022-09-17T18:43:41.309Z,14.15
2022-09-17T18:46:09.807Z,14.52
2022-09-17T18:48:37.781Z,12.88
2022-09-17T18:51:14.773Z,11.38
2022-09-17T18:53:48.289Z,12.20
2022-09-17T18:56:21.399Z,14.85
2022-09-17T18:58:50.998Z,11.50
2022-09-17T19:01:30.553Z,14.80
2022-09-17T19:04:01.037Z,14.10
2022-09-17T19:06:28.815Z,11.18
2022-09-17T19:09:00.573Z,14.52
2022-09-17T19:11:28.418Z,13.80
2022-09-17T19:13:56.469Z,11.75
2022-09-17T19:16:26.245Z,19.13
2022-09-17T19:18:55.811Z,18.38
2022-09-17T19:21:31.479Z,16.48
2022-09-17T19:23:58.568Z,19.02
2022-09-17T19:26:27.743Z,19.65
2022-09-17T19:28:57.924Z,11.63
2022-09-17T19:31:26.816Z,17.92
2022-09-17T19:33:59.382Z,13.25
2022-09-17T19:36:26.838Z,13.40
2022-09-17T19:38:54.917Z,15.00
2022-09-17T19:41:25.725Z,12.55
2022-09-17T19:43:54.038Z,13.00
2022-09-17T19:46:24.972Z,14.93
2022-09-17T19:48:57.277Z,10.25
2022-09-17T19:51:26.698Z,17.75
2022-09-17T19:53:53.896Z,14.77
2022-09-17T19:56:23.333Z,13.10
2022-09-17T19:58:50.898Z,12.07
2022-09-17T20:01:19.012Z,15.07
2022-09-17T20:03:47.493Z,21.00
2022-09-17T20:06:18.105Z,16.85
2022-09-17T20:08:49.636Z,12.73
2022-09-17T20:11:18.348Z,19.48
2022-09-17T20:13:45.299Z,17.30
2022-09-17T20:16:17.042Z,18.92
2022-09-17T20:18:44.713Z,17.85
2022-09-17T20:21:18.973Z,23.92
2022-09-17T20:23:46.589Z,17.80
2022-09-17T20:26:14.660Z,19.67
2022-09-17T20:28:42.379Z,16.85
2022-09-17T20:31:14.893Z,15.35
2022-09-17T20:33:42.702Z,20.85
2022-09-17T20:36:23.567Z,17.33
2022-09-17T20:39:14.185Z,15.05
2022-09-17T20:41:40.411Z,15.52
2022-09-17T20:44:07.980Z,13.45
2022-09-17T20:46:38.496Z,15.98
2022-09-17T20:49:05.893Z,18.00
2022-09-17T20:51:34.193Z,11.95
2022-09-17T20:54:02.105Z,12.70
2022-09-17T20:56:33.390Z,16.75
2022-09-17T20:59:19.201Z,13.40
2022-09-17T21:01:49.845Z,16.55
2022-09-17T21:04:21.379Z,16.08
2022-09-17T21:06:52.781Z,15.95
2022-09-17T21:09:20.591Z,13.27
2022-09-17T21:11:49.108Z,11.35
2022-09-17T21:14:18.320Z,15.90
2022-09-17T21:16:49.528Z,12.10
2022-09-17T21:19:16.877Z,11.32
2022-09-17T21:21:44.769Z,15.55
2022-09-17T21:24:12.573Z,15.98
2022-09-17T21:26:39.859Z,13.20
2022-09-17T21:29:07.268Z,12.95
2022-09-17T21:31:37.219Z,16.00
2022-09-17T21:34:08.212Z,15.23
2022-09-17T21:36:37.970Z,17.02
2022-09-17T21:39:11.089Z,12.55
2022-09-17T21:41:42.603Z,14.82
2022-09-17T21:44:13.118Z,12.75
2022-09-17T21:46:43.079Z,12.93
2022-09-17T21:49:13.185Z,16.55
2022-09-17T21:51:42.473Z,13.02
2022-09-17T21:54:11.983Z,15.30
2022-09-17T21:56:39.671Z,15.00
2022-09-17T21:59:09.515Z,15.35
2022-09-17T22:01:40.674Z,12.30
2022-09-17T22:04:16.136Z,13.60
2022-09-17T22:06:44.680Z,11.18
2022-09-17T22:09:18.291Z,14.32
2022-09-17T22:11:45.670Z,17.08
2022-09-17T22:14:19.812Z,11.43
2022-09-17T22:16:51.119Z,14.93
2022-09-17T22:19:19.924Z,15.05
2022-09-17T22:21:51.534Z,15.02
2022-09-17T22:24:21.041Z,15.80
2022-09-17T22:26:55.950Z,15.25
2022-09-17T22:29:24.903Z,12.15
2022-09-17T22:31:52.091Z,11.07
2022-09-17T22:34:21.660Z,10.15
2022-09-17T22:36:49.620Z,13.98
2022-09-17T22:39:19.212Z,15.65
2022-09-17T22:41:46.415Z,12.45
2022-09-17T22:44:16.789Z,15.18
2022-09-17T22:46:46.641Z,16.98
2022-09-17T22:49:14.914Z,12.63
2022-09-17T22:51:43.083Z,18.98
2022-09-17T22:54:17.244Z,15.20
2022-09-17T22:56:49.387Z,11.43
2022-09-17T22:59:18.588Z,14.73
2022-09-17T23:01:49.128Z,10.48
2022-09-17T23:04:17.070Z,16.58
2022-09-17T23:06:44.155Z,11.75
2022-09-17T23:09:14.626Z,14.63
2022-09-17T23:11:41.939Z,14.80
2022-09-17T23:14:12.279Z,12.02
2022-09-17T23:16:45.633Z,15.20
2022-09-17T23:19:15.606Z,15.77
2022-09-17T23:21:43.414Z,17.02
2022-09-17T23:24:16.688Z,17.20
2022-09-17T23:26:43.733Z,15.55
2022-09-17T23:29:11.344Z,22.98
2022-09-17T23:31:38.575Z,16.00
2022-09-17T23:34:10.773Z,15.30
2022-09-17T23:36:41.105Z,14.63
2022-09-17T23:39:10.671Z,14.40
2022-09-17T23:41:40.747Z,15.05
2022-09-17T23:44:14.609Z,22.42
2022-09-17T23:46:43.293Z,17.75
2022-09-17T23:49:12.145Z,16.00
2022-09-17T23:51:39.256Z,17.15
2022-09-17T23:54:07.815Z,22.08
2022-09-17T23:56:35.305Z,14.43
2022-09-17T23:59:02.837Z,15.15
